Time;durP1;ratioP1;P1;durP2;ratioP2;P2;SDS_P1;SDS_P2;PMS_P1;PMS_P2;Temp;Humidity;BMP_temperature;BMP_pressure;BME280_temperature;BME280_humidity;BME280_pressure;Samples;Min_cycle;Max_cycle;Signal;HPM_P1;HPM_P2
2022/05/15 00:01:49;;;;;;;12.80;5.70;;;8.70;99.90;;;;;;5046793;28;20718;-91
2022/05/15 00:04:15;;;;;;;12.67;5.00;;;8.70;99.90;;;;;;5056299;28;20473;-85
2022/05/15 00:06:41;;;;;;;7.37;3.87;;;8.70;99.90;;;;;;5036616;28;20200;-90
2022/05/15 00:09:06;;;;;;;12.50;5.13;;;8.70;99.90;;;;;;5036138;28;20184;-90
2022/05/15 00:11:32;;;;;;;9.90;4.97;;;8.60;99.90;;;;;;5035003;28;20184;-86
2022/05/15 00:13:58;;;;;;;14.67;5.07;;;8.60;99.90;;;;;;5034480;28;20707;-87
2022/05/15 00:16:24;;;;;;;14.60;4.67;;;8.60;99.90;;;;;;5035310;28;20713;-83
2022/05/15 00:18:50;;;;;;;9.87;4.23;;;8.50;99.90;;;;;;5035281;28;20168;-84
2022/05/15 00:21:17;;;;;;;8.83;4.00;;;8.40;99.90;;;;;;5035233;28;20423;-86
2022/05/15 00:23:43;;;;;;;8.13;3.80;;;8.30;99.90;;;;;;5035247;28;20465;-89
2022/05/15 00:26:10;;;;;;;10.90;4.23;;;8.40;99.90;;;;;;5034187;28;20426;-86
2022/05/15 00:28:36;;;;;;;14.13;4.23;;;8.30;99.90;;;;;;5035366;28;20450;-90
2022/05/15 00:31:03;;;;;;;8.67;4.57;;;8.20;99.90;;;;;;5033872;28;20467;-87
2022/05/15 00:33:29;;;;;;;9.00;3.53;;;8.20;99.90;;;;;;5035602;28;20166;-86
2022/05/15 00:35:55;;;;;;;10.03;4.87;;;8.20;99.90;;;;;;5033740;28;20477;-85
2022/05/15 00:38:21;;;;;;;7.40;3.53;;;8.30;99.90;;;;;;5034035;28;20619;-85
2022/05/15 00:40:48;;;;;;;12.87;4.90;;;8.30;99.90;;;;;;5034447;28;20183;-86
2022/05/15 00:43:37;;;;;;;10.50;4.90;;;8.40;99.90;;;;;;5033605;28;20433;-86
2022/05/15 00:46:08;;;;;;;15.03;4.60;;;8.40;99.90;;;;;;5033747;28;20410;-85
2022/05/15 00:48:34;;;;;;;16.87;5.13;;;8.40;99.90;;;;;;5034394;28;20503;-90
2022/05/15 00:51:05;;;;;;;12.27;4.27;;;8.40;99.90;;;;;;5033669;28;20504;-85
2022/05/15 00:53:34;;;;;;;7.00;3.63;;;8.30;99.90;;;;;;5033516;28;20186;-85
2022/05/15 00:56:01;;;;;;;11.27;5.23;;;8.20;99.90;;;;;;5034501;28;20469;-86
2022/05/15 00:58:36;;;;;;;14.83;4.63;;;8.20;99.90;;;;;;5033486;28;20971;-85
2022/05/15 01:01:03;;;;;;;10.90;4.10;;;8.20;99.90;;;;;;5035253;28;20431;-86
2022/05/15 01:03:28;;;;;;;11.40;5.43;;;8.10;99.90;;;;;;5034949;28;20886;-89
2022/05/15 01:05:56;;;;;;;11.00;3.43;;;8.10;99.90;;;;;;5034911;28;20427;-90
2022/05/15 01:08:24;;;;;;;10.30;4.10;;;8.10;99.90;;;;;;5035336;28;20180;-85
2022/05/15 01:11:08;;;;;;;10.70;4.37;;;8.00;99.90;;;;;;5033777;28;20430;-90
2022/05/15 01:13:37;;;;;;;7.83;4.50;;;8.10;99.90;;;;;;5034883;28;20409;-87
2022/05/15 01:16:05;;;;;;;12.03;5.10;;;8.30;99.90;;;;;;5034285;28;20566;-89
2022/05/15 01:18:32;;;;;;;8.87;5.00;;;8.30;99.90;;;;;;5034598;28;20448;-87
2022/05/15 01:20:59;;;;;;;9.70;4.60;;;8.40;99.90;;;;;;5033254;28;20956;-86
2022/05/15 01:23:29;;;;;;;11.00;6.07;;;8.40;99.90;;;;;;5033084;28;20467;-84
2022/05/15 01:25:57;;;;;;;10.13;5.30;;;8.30;99.90;;;;;;5050027;28;20456;-85
2022/05/15 01:28:25;;;;;;;9.70;6.20;;;8.20;99.90;;;;;;5032949;28;20420;-84
2022/05/15 01:30:53;;;;;;;10.37;5.27;;;8.10;99.90;;;;;;5034144;28;20415;-85
2022/05/15 01:33:19;;;;;;;15.53;5.93;;;8.10;99.90;;;;;;5034185;28;21006;-84
2022/05/15 01:35:45;;;;;;;8.67;5.27;;;7.90;99.90;;;;;;5033190;28;20478;-84
2022/05/15 01:38:11;;;;;;;7.40;5.60;;;7.80;99.90;;;;;;5035161;28;20409;-89
2022/05/15 01:40:38;;;;;;;8.50;5.43;;;7.60;99.90;;;;;;5033399;28;21016;-85
2022/05/15 01:43:14;;;;;;;13.50;5.13;;;7.70;99.90;;;;;;5034282;28;20181;-86
2022/05/15 01:45:40;;;;;;;9.10;4.93;;;7.70;99.90;;;;;;5032801;28;20429;-91
2022/05/15 01:48:06;;;;;;;12.80;5.17;;;7.60;99.90;;;;;;5032911;28;20414;-84
2022/05/15 01:50:31;;;;;;;9.07;4.50;;;7.60;99.90;;;;;;5049624;28;20187;-90
2022/05/15 01:52:57;;;;;;;12.63;5.33;;;7.50;99.90;;;;;;5034048;28;20419;-85
2022/05/15 01:55:23;;;;;;;10.90;4.63;;;7.50;99.90;;;;;;5032289;28;20674;-84
2022/05/15 01:57:49;;;;;;;8.80;4.70;;;7.50;99.90;;;;;;5032367;28;20414;-84
2022/05/15 02:00:23;;;;;;;9.00;4.33;;;7.40;99.90;;;;;;5033325;28;20795;-85
2022/05/15 02:02:49;;;;;;;9.77;5.20;;;7.40;99.90;;;;;;5034323;28;20164;-85
2022/05/15 02:05:16;;;;;;;12.03;5.70;;;7.40;99.90;;;;;;5033438;28;20411;-91
2022/05/15 02:07:41;;;;;;;10.00;4.83;;;7.40;99.90;;;;;;5048758;28;20432;-85
2022/05/15 02:10:08;;;;;;;12.00;5.07;;;7.30;99.90;;;;;;5033409;28;20413;-86
2022/05/15 02:12:34;;;;;;;8.07;4.33;;;7.30;99.90;;;;;;5049189;28;20170;-89
2022/05/15 02:15:01;;;;;;;7.90;5.07;;;7.20;99.90;;;;;;5033585;28;20515;-91
2022/05/15 02:17:30;;;;;;;9.73;4.77;;;7.10;99.90;;;;;;5034651;28;20175;-88
2022/05/15 02:19:59;;;;;;;9.13;4.37;;;7.10;99.90;;;;;;5033913;28;20402;-89
2022/05/15 02:22:27;;;;;;;8.80;5.07;;;7.00;99.90;;;;;;5033318;28;20516;-89
2022/05/15 02:24:53;;;;;;;7.97;5.67;;;7.00;99.90;;;;;;5035358;28;20429;-90
2022/05/15 02:27:19;;;;;;;10.97;3.97;;;7.00;99.90;;;;;;5034890;28;20819;-86
2022/05/15 02:29:44;;;;;;;12.27;4.40;;;7.10;99.90;;;;;;5034061;28;20564;-84
2022/05/15 02:32:13;;;;;;;8.93;5.40;;;7.10;99.90;;;;;;5032826;28;20178;-85
2022/05/15 02:34:38;;;;;;;5.93;3.60;;;7.00;99.90;;;;;;5033173;28;20187;-85
2022/05/15 02:37:04;;;;;;;6.53;4.50;;;7.00;99.90;;;;;;5033519;28;20427;-89
2022/05/15 02:39:29;;;;;;;9.03;5.37;;;6.90;99.90;;;;;;5034358;28;20170;-86
2022/05/15 02:41:55;;;;;;;10.43;4.97;;;6.80;99.90;;;;;;5033277;28;20421;-87
2022/05/15 02:44:23;;;;;;;11.07;5.23;;;6.80;99.90;;;;;;5034509;28;20179;-88
2022/05/15 02:46:48;;;;;;;8.67;4.40;;;6.80;99.90;;;;;;5034425;28;20184;-84
2022/05/15 02:51:59;;;;;;;7.50;4.70;;;6.80;99.90;;;;;;5034527;28;20179;-88
2022/05/15 02:54:24;;;;;;;7.70;4.63;;;6.80;99.90;;;;;;5034276;28;20471;-87
2022/05/15 02:56:50;;;;;;;9.13;5.37;;;6.70;99.90;;;;;;5033476;28;20880;-84
2022/05/15 02:59:16;;;;;;;9.67;5.67;;;6.70;99.90;;;;;;5033235;28;20178;-87
2022/05/15 03:01:41;;;;;;;9.07;4.00;;;6.70;99.90;;;;;;5033455;28;20191;-87
2022/05/15 03:04:07;;;;;;;11.80;5.07;;;6.70;99.90;;;;;;5033593;28;20187;-87
2022/05/15 03:06:33;;;;;;;8.70;5.10;;;6.70;99.90;;;;;;5048967;28;20193;-84
2022/05/15 03:08:58;;;;;;;8.53;4.50;;;6.60;99.90;;;;;;5032370;28;20174;-84
2022/05/15 03:11:24;;;;;;;12.83;6.20;;;6.70;99.90;;;;;;5032300;28;20614;-85
2022/05/15 03:13:49;;;;;;;11.27;5.70;;;6.80;99.90;;;;;;5033159;28;20194;-85
2022/05/15 03:16:19;;;;;;;10.43;5.20;;;6.70;99.90;;;;;;5048671;28;20556;-87
2022/05/15 03:18:47;;;;;;;8.77;5.50;;;6.60;99.90;;;;;;5034762;28;20180;-87
2022/05/15 03:21:28;;;;;;;10.60;5.50;;;6.70;99.90;;;;;;5036199;28;20548;-87
2022/05/15 03:24:05;;;;;;;7.20;5.43;;;6.70;99.90;;;;;;5037327;28;20461;-87
2022/05/15 03:26:35;;;;;;;8.80;5.33;;;6.60;99.90;;;;;;5036648;28;20904;-86
2022/05/15 03:29:02;;;;;;;13.90;6.93;;;6.60;99.90;;;;;;5038158;28;20428;-89
2022/05/15 03:31:31;;;;;;;6.77;5.00;;;6.60;99.90;;;;;;5047601;28;20423;-86
2022/05/15 03:33:59;;;;;;;7.50;5.13;;;6.50;99.90;;;;;;5054626;28;20426;-87
2022/05/15 03:36:24;;;;;;;7.63;4.90;;;6.60;99.90;;;;;;5056136;28;20505;-86
2022/05/15 03:38:50;;;;;;;7.30;5.07;;;6.50;99.90;;;;;;5050901;28;20403;-86
2022/05/15 03:41:15;;;;;;;9.07;5.00;;;6.50;99.90;;;;;;5050674;28;20171;-88
2022/05/15 03:43:41;;;;;;;10.40;5.07;;;6.60;99.90;;;;;;5044834;28;20193;-86
2022/05/15 03:46:07;;;;;;;9.90;5.43;;;6.60;99.90;;;;;;5053219;28;20201;-88
2022/05/15 03:48:33;;;;;;;8.40;5.43;;;6.50;99.90;;;;;;5054042;28;20178;-85
2022/05/15 03:50:59;;;;;;;12.33;5.80;;;6.60;99.90;;;;;;5052805;28;20912;-85
2022/05/15 03:53:26;;;;;;;9.10;4.90;;;6.60;99.90;;;;;;5053077;28;20452;-86
2022/05/15 03:55:55;;;;;;;10.43;5.47;;;6.60;99.90;;;;;;5051772;28;20464;-89
2022/05/15 03:58:28;;;;;;;10.03;4.53;;;6.60;99.90;;;;;;5052337;28;20421;-85
2022/05/15 04:00:56;;;;;;;10.83;4.90;;;6.70;99.90;;;;;;5054952;28;20493;-86
2022/05/15 04:03:22;;;;;;;9.07;5.67;;;6.70;99.90;;;;;;5052187;28;20382;-85
2022/05/15 04:05:48;;;;;;;6.27;4.97;;;6.80;99.90;;;;;;5049521;28;20440;-85
2022/05/15 04:08:14;;;;;;;7.90;4.80;;;7.00;99.90;;;;;;5056781;28;20175;-85
2022/05/15 04:10:39;;;;;;;7.57;4.40;;;7.00;99.90;;;;;;5052700;28;20410;-85
2022/05/15 04:13:05;;;;;;;12.93;5.87;;;7.10;99.90;;;;;;5037216;28;20170;-86
2022/05/15 04:15:32;;;;;;;6.57;5.20;;;7.20;99.90;;;;;;5036542;28;20658;-88
2022/05/15 04:17:57;;;;;;;8.97;5.17;;;7.30;99.90;;;;;;5036786;28;20178;-86
2022/05/15 04:20:26;;;;;;;19.03;6.27;;;7.40;99.90;;;;;;5036569;28;20418;-88
2022/05/15 04:22:53;;;;;;;22.17;5.37;;;7.60;99.90;;;;;;5036278;28;20223;-87
2022/05/15 04:25:19;;;;;;;18.80;6.43;;;7.70;99.90;;;;;;5036479;28;20449;-88
2022/05/15 04:27:49;;;;;;;13.43;5.40;;;7.80;99.90;;;;;;5036016;28;20914;-89
2022/05/15 04:30:26;;;;;;;28.47;6.07;;;7.80;99.90;;;;;;5035861;28;20418;-88
2022/05/15 04:32:52;;;;;;;20.90;4.70;;;7.70;99.90;;;;;;5036360;28;20445;-89
2022/05/15 04:35:18;;;;;;;8.27;5.27;;;7.70;99.90;;;;;;5036001;28;20509;-88
2022/05/15 04:37:44;;;;;;;13.77;6.13;;;7.70;99.90;;;;;;5036336;28;20415;-85
2022/05/15 04:40:11;;;;;;;15.40;5.67;;;7.80;99.90;;;;;;5035714;28;20419;-84
2022/05/15 04:42:38;;;;;;;9.00;5.50;;;7.90;99.90;;;;;;5043524;28;20429;-84
2022/05/15 04:45:04;;;;;;;6.60;3.90;;;7.90;99.90;;;;;;5045691;28;20419;-84
2022/05/15 04:47:29;;;;;;;8.77;5.43;;;7.90;99.90;;;;;;5042131;28;20483;-84
2022/05/15 04:49:56;;;;;;;12.93;5.47;;;7.90;99.90;;;;;;5037176;28;20426;-89
2022/05/15 04:52:22;;;;;;;7.60;5.30;;;8.00;99.90;;;;;;5034788;28;20261;-84
2022/05/15 04:54:47;;;;;;;6.23;5.17;;;8.10;99.90;;;;;;5035477;28;20439;-88
2022/05/15 04:57:13;;;;;;;9.13;5.77;;;8.10;99.90;;;;;;5035562;28;20191;-85
2022/05/15 04:59:38;;;;;;;10.93;5.73;;;8.20;99.90;;;;;;5035220;28;20203;-91
2022/05/15 05:02:04;;;;;;;7.20;4.63;;;8.30;99.90;;;;;;5051010;28;20273;-85
2022/05/15 05:04:32;;;;;;;10.73;5.70;;;8.30;99.90;;;;;;5061736;28;20640;-86
2022/05/15 05:06:58;;;;;;;8.27;5.97;;;8.40;99.90;;;;;;5061950;28;20260;-87
2022/05/15 05:09:25;;;;;;;8.60;5.80;;;8.50;99.90;;;;;;5054055;28;20942;-88
2022/05/15 05:11:50;;;;;;;12.77;6.47;;;8.70;99.90;;;;;;5054015;28;20582;-86
2022/05/15 05:14:16;;;;;;;10.30;5.90;;;8.80;99.90;;;;;;5048714;28;20459;-89
2022/05/15 05:16:41;;;;;;;8.10;6.43;;;8.90;99.90;;;;;;5034935;28;20220;-88
2022/05/15 05:19:07;;;;;;;9.57;6.70;;;9.00;99.90;;;;;;5033817;28;20266;-89
2022/05/15 05:21:33;;;;;;;10.33;5.90;;;9.10;99.90;;;;;;5033779;28;20182;-87
2022/05/15 05:23:59;;;;;;;9.60;6.77;;;9.30;99.90;;;;;;5033551;28;20317;-86
2022/05/15 05:26:24;;;;;;;10.57;6.03;;;9.60;99.90;;;;;;5034911;28;20849;-84
2022/05/15 05:28:50;;;;;;;10.97;6.23;;;9.80;99.90;;;;;;5033481;28;20668;-89
2022/05/15 05:31:16;;;;;;;10.47;6.83;;;10.10;99.90;;;;;;5034971;28;20252;-88
2022/05/15 05:33:42;;;;;;;10.23;6.20;;;10.40;99.90;;;;;;5033498;28;20268;-85
2022/05/15 05:36:11;;;;;;;10.53;6.20;;;10.70;99.90;;;;;;5034596;28;21015;-92
2022/05/15 05:38:36;;;;;;;11.10;7.97;;;11.10;99.90;;;;;;5034627;28;20841;-85
2022/05/15 05:41:02;;;;;;;12.70;6.83;;;11.50;99.90;;;;;;5032320;28;20460;-85
2022/05/15 05:43:28;;;;;;;17.43;8.30;;;11.80;99.90;;;;;;5033687;28;20172;-84
2022/05/15 05:45:54;;;;;;;18.30;7.97;;;12.20;99.90;;;;;;5033177;28;20179;-89
2022/05/15 05:48:19;;;;;;;13.10;7.17;;;12.50;99.90;;;;;;5033078;28;20582;-91
2022/05/15 05:50:45;;;;;;;11.07;5.87;;;12.90;99.90;;;;;;5034123;28;20414;-86
2022/05/15 05:53:10;;;;;;;17.57;7.33;;;13.00;99.90;;;;;;5034288;28;20563;-85
2022/05/15 05:55:36;;;;;;;13.70;8.13;;;13.10;99.90;;;;;;5032532;28;20280;-86
2022/05/15 05:58:03;;;;;;;9.67;6.57;;;13.50;99.90;;;;;;5032843;28;20178;-86
2022/05/15 06:00:32;;;;;;;12.03;7.30;;;13.60;99.90;;;;;;5033870;28;20559;-90
2022/05/15 06:05:44;;;;;;;12.77;6.30;;;14.00;48.30;;;;;;5034026;28;20431;-86
2022/05/15 06:08:10;;;;;;;12.40;6.27;;;14.10;97.10;;;;;;5033789;28;20413;-86
2022/05/15 06:10:39;;;;;;;11.10;7.30;;;14.20;57.40;;;;;;5032463;28;20414;-86
2022/05/15 06:13:05;;;;;;;8.70;4.43;;;14.40;1.00;;;;;;5032255;28;20641;-85
2022/05/15 06:15:30;;;;;;;7.60;4.77;;;14.60;1.00;;;;;;5033664;28;20516;-85
2022/05/15 06:18:00;;;;;;;12.03;5.97;;;14.70;1.00;;;;;;5032306;28;20228;-87
2022/05/15 06:20:26;;;;;;;9.70;5.50;;;15.10;1.00;;;;;;5032198;28;20389;-91
2022/05/15 06:22:53;;;;;;;12.97;4.93;;;15.40;1.00;;;;;;5016093;28;21045;-89
2022/05/15 06:25:19;;;;;;;17.63;6.87;;;16.70;94.80;;;;;;5034243;28;20835;-91
2022/05/15 06:27:45;;;;;;;7.90;4.97;;;17.90;1.00;;;;;;5035931;28;20429;-89
2022/05/15 06:30:12;;;;;;;7.83;1.87;;;18.90;99.90;;;;;;5042477;28;20439;-89
2022/05/15 06:32:39;;;;;;;9.20;2.20;;;19.70;99.90;;;;;;5050739;28;20232;-92
2022/05/15 06:35:05;;;;;;;8.93;2.73;;;20.40;99.90;;;;;;5045585;28;20460;-91
2022/05/15 06:37:31;;;;;;;5.13;2.03;;;20.80;99.90;;;;;;5032673;28;20479;-91
2022/05/15 06:39:57;;;;;;;3.90;1.13;;;21.00;99.70;;;;;;5032442;28;20500;-88
2022/05/15 06:42:23;;;;;;;3.97;0.90;;;21.50;78.20;;;;;;5033720;28;20308;-88
2022/05/15 06:44:49;;;;;;;3.43;1.03;;;21.80;56.00;;;;;;5032955;28;20475;-89
2022/05/15 06:47:14;;;;;;;2.40;0.90;;;22.10;55.60;;;;;;5032529;28;20179;-93
2022/05/15 06:49:40;;;;;;;2.60;0.57;;;22.30;43.60;;;;;;5037385;28;20426;-91
2022/05/15 06:52:06;;;;;;;9.57;1.53;;;22.10;40.40;;;;;;5033305;28;20171;-90
2022/05/15 06:54:31;;;;;;;1.90;0.60;;;22.40;47.10;;;;;;5032096;28;20239;-91
2022/05/15 06:59:41;;;;;;;4.03;1.07;;;22.50;29.10;;;;;;5033122;28;20184;-90
2022/05/15 07:02:07;;;;;;;5.27;0.93;;;23.40;29.50;;;;;;5033116;28;20983;-84
2022/05/15 07:04:33;;;;;;;2.17;0.70;;;23.40;25.10;;;;;;5033130;28;20216;-85
2022/05/15 07:06:58;;;;;;;2.50;0.87;;;23.80;20.20;;;;;;5033223;28;20839;-91
2022/05/15 07:09:27;;;;;;;1.83;0.57;;;24.00;14.40;;;;;;5032798;28;20170;-83
2022/05/15 07:11:53;;;;;;;3.20;1.20;;;23.80;7.10;;;;;;5032770;28;20170;-84
2022/05/15 07:14:18;;;;;;;5.17;1.50;;;23.70;8.20;;;;;;5032445;28;20432;-85
2022/05/15 07:16:44;;;;;;;3.10;0.70;;;23.70;1.00;;;;;;5032594;28;20217;-83
2022/05/15 07:19:09;;;;;;;2.47;1.00;;;23.80;1.00;;;;;;5032879;28;20258;-92
2022/05/15 07:21:35;;;;;;;3.90;0.87;;;23.70;1.00;;;;;;5031870;28;20174;-82
2022/05/15 07:24:07;;;;;;;4.37;1.10;;;23.80;1.00;;;;;;5032542;28;20226;-83
2022/05/15 07:26:33;;;;;;;2.50;0.40;;;24.20;1.00;;;;;;5032725;28;20212;-84
2022/05/15 07:28:59;;;;;;;4.43;0.93;;;24.10;1.00;;;;;;5032231;28;20466;-83
2022/05/15 07:31:25;;;;;;;4.23;1.10;;;23.70;1.00;;;;;;5032683;28;20516;-83
2022/05/15 07:33:50;;;;;;;5.47;1.07;;;24.30;1.00;;;;;;5032775;28;20174;-82
2022/05/15 07:36:16;;;;;;;3.43;0.80;;;24.00;1.00;;;;;;5032717;28;20206;-82
2022/05/15 07:38:43;;;;;;;3.67;0.60;;;24.40;1.00;;;;;;5032642;28;20586;-83
2022/05/15 07:41:12;;;;;;;2.90;0.80;;;24.80;1.00;;;;;;5032287;28;20765;-91
2022/05/15 07:43:37;;;;;;;3.23;0.60;;;25.10;1.00;;;;;;5032186;28;20405;-83
2022/05/15 07:46:03;;;;;;;1.80;0.43;;;25.00;1.00;;;;;;5032168;28;20754;-87
2022/05/15 07:48:29;;;;;;;2.00;0.50;;;25.20;1.00;;;;;;5013941;28;20182;-83
2022/05/15 07:50:55;;;;;;;1.80;0.30;;;25.00;1.00;;;;;;5014113;28;20585;-83
2022/05/15 07:53:21;;;;;;;2.23;0.53;;;25.50;1.00;;;;;;5032799;28;20169;-83
2022/05/15 07:55:50;;;;;;;3.37;0.50;;;25.10;1.00;;;;;;5032706;28;20468;-84
2022/05/15 07:58:25;;;;;;;1.87;0.50;;;24.70;1.00;;;;;;5032334;28;20166;-85
2022/05/15 08:00:53;;;;;;;2.47;0.70;;;25.20;1.00;;;;;;5015016;28;20916;-90
2022/05/15 08:03:19;;;;;;;1.50;0.53;;;25.80;1.00;;;;;;5032783;28;20416;-85
2022/05/15 08:08:29;;;;;;;2.90;0.90;;;25.00;1.00;;;;;;5036231;28;20467;-84
2022/05/15 08:10:55;;;;;;;1.43;0.30;;;24.80;1.00;;;;;;5035968;28;20417;-85
2022/05/15 08:13:25;;;;;;;1.90;0.30;;;25.00;1.00;;;;;;5035785;28;20662;-84
2022/05/15 08:15:51;;;;;;;0.93;0.20;;;24.40;1.00;;;;;;5035594;28;20228;-83
2022/05/15 08:23:57;;;;;;;2.67;0.87;;;25.20;1.00;;;;;;5030848;28;20465;-93
2022/05/15 08:26:26;;;;;;;1.57;0.40;;;25.10;1.00;;;;;;5018598;28;20763;-91
2022/05/15 08:28:53;;;;;;;1.83;0.20;;;25.40;1.00;;;;;;5017379;28;20910;-91
2022/05/15 08:31:21;;;;;;;0.90;0.20;;;26.00;1.00;;;;;;5017403;28;20425;-90
2022/05/15 08:33:47;;;;;;;1.67;0.30;;;26.00;1.00;;;;;;5018157;28;20421;-91
2022/05/15 08:36:13;;;;;;;1.20;0.20;;;25.90;1.00;;;;;;5016267;28;20472;-89
2022/05/15 08:38:39;;;;;;;2.03;0.40;;;26.00;1.00;;;;;;5016186;28;20430;-84
2022/05/15 08:41:16;;;;;;;1.93;0.60;;;25.70;1.00;;;;;;5016400;28;20413;-91
2022/05/15 08:43:55;;;;;;;2.80;0.30;;;25.50;1.00;;;;;;5016326;28;20198;-92
2022/05/15 08:46:24;;;;;;;0.93;0.23;;;25.70;1.00;;;;;;5017307;28;20777;-89
2022/05/15 08:48:54;;;;;;;1.23;0.40;;;25.90;1.00;;;;;;5016521;28;20414;-91
2022/05/15 08:51:20;;;;;;;0.53;0.20;;;26.00;1.00;;;;;;4999119;28;20414;-85
2022/05/15 08:53:49;;;;;;;1.00;0.20;;;26.50;1.00;;;;;;5015746;28;20453;-85
2022/05/15 08:56:16;;;;;;;1.90;0.40;;;26.20;1.00;;;;;;5015263;28;20690;-81
2022/05/15 08:58:54;;;;;;;1.10;0.30;;;25.90;1.00;;;;;;5014891;28;20417;-83
2022/05/15 09:01:26;;;;;;;1.33;0.30;;;26.20;1.00;;;;;;5015708;28;20410;-82
2022/05/15 09:03:53;;;;;;;1.50;0.33;;;26.20;1.00;;;;;;5015569;28;20930;-82
2022/05/15 09:06:29;;;;;;;2.13;0.40;;;25.80;1.00;;;;;;4997313;28;20502;-83
2022/05/15 09:09:14;;;;;;;4.27;0.50;;;25.80;1.00;;;;;;4997589;28;20854;-82
2022/05/15 09:11:53;;;;;;;2.50;0.60;;;26.80;1.00;;;;;;5015018;28;20414;-81
2022/05/15 09:14:27;;;;;;;1.17;0.50;;;26.80;1.00;;;;;;5014827;28;20464;-84
2022/05/15 09:16:59;;;;;;;1.37;0.50;;;26.30;1.00;;;;;;5014718;28;20579;-87
2022/05/15 09:19:26;;;;;;;1.33;0.57;;;26.50;1.00;;;;;;5014814;28;20410;-82
2022/05/15 09:21:57;;;;;;;0.90;0.30;;;26.90;1.00;;;;;;5014915;28;20513;-83
2022/05/15 09:24:32;;;;;;;1.83;0.30;;;27.30;1.00;;;;;;5045290;28;20658;-89
2022/05/15 09:27:15;;;;;;;0.90;0.30;;;27.20;1.00;;;;;;5053652;28;20412;-82
2022/05/15 09:29:40;;;;;;;1.60;0.37;;;27.20;1.00;;;;;;5054044;28;20474;-82
2022/05/15 09:32:27;;;;;;;1.87;0.20;;;27.50;1.00;;;;;;5054378;28;20815;-82
2022/05/15 09:34:53;;;;;;;0.87;0.30;;;26.40;1.00;;;;;;5054153;28;20180;-86
2022/05/15 09:40:22;;;;;;;2.53;0.67;;;26.50;1.00;;;;;;5041834;28;20814;-87
2022/05/15 09:43:39;;;;;;;1.40;0.43;;;27.20;1.00;;;;;;5054987;28;20503;-88
2022/05/15 09:45:54;;;;;;;1.70;0.50;;;26.50;1.00;;;;;;5048337;28;20488;-81
2022/05/15 09:48:24;;;;;;;1.57;0.50;;;27.30;1.00;;;;;;5042254;28;20434;-81
2022/05/15 09:50:52;;;;;;;0.83;0.20;;;27.90;1.00;;;;;;5067581;28;20423;-86
2022/05/15 09:53:32;;;;;;;1.50;0.20;;;27.70;1.00;;;;;;5068020;28;20760;-88
2022/05/15 09:56:10;;;;;;;2.40;0.50;;;27.50;1.00;;;;;;5070374;28;20466;-81
2022/05/15 09:58:51;;;;;;;2.30;0.50;;;27.20;1.00;;;;;;5033950;28;20439;-82
2022/05/15 10:01:47;;;;;;;2.33;0.20;;;27.10;1.00;;;;;;5034373;28;20424;-86
2022/05/15 10:04:25;;;;;;;1.80;0.40;;;27.00;1.00;;;;;;5034328;28;20506;-82
2022/05/15 10:06:57;;;;;;;0.93;0.30;;;27.30;1.00;;;;;;5016261;28;20461;-82
2022/05/15 10:09:32;;;;;;;0.70;0.30;;;26.60;1.00;;;;;;5016306;28;20429;-89
2022/05/15 10:12:30;;;;;;;1.47;0.30;;;26.50;1.00;;;;;;5033620;28;20409;-88
2022/05/15 10:14:59;;;;;;;1.50;0.43;;;27.00;1.00;;;;;;5033727;28;20413;-82
2022/05/15 10:17:27;;;;;;;1.57;0.60;;;27.00;1.00;;;;;;5034609;28;20409;-83
2022/05/15 10:20:01;;;;;;;1.37;0.40;;;27.20;1.00;;;;;;5034798;28;20821;-83
2022/05/15 10:22:49;;;;;;;1.40;0.40;;;27.90;1.00;;;;;;5034837;28;20463;-82
2022/05/15 10:25:29;;;;;;;0.87;0.30;;;27.30;1.00;;;;;;5035486;28;20486;-91
2022/05/15 10:28:19;;;;;;;0.90;0.33;;;27.30;1.00;;;;;;5035851;28;20412;-92
2022/05/15 10:31:11;;;;;;;1.07;0.53;;;27.50;1.00;;;;;;5034267;28;20428;-82
2022/05/15 10:33:43;;;;;;;0.70;0.20;;;26.80;1.00;;;;;;5034685;28;20762;-85
2022/05/15 10:36:25;;;;;;;1.90;0.50;;;26.70;1.00;;;;;;5037540;28;20486;-87
2022/05/15 10:39:02;;;;;;;1.50;0.50;;;27.30;1.00;;;;;;5057822;28;20412;-82
2022/05/15 10:42:13;;;;;;;2.77;0.20;;;27.20;1.00;;;;;;5052670;28;20420;-82
2022/05/15 10:45:06;;;;;;;0.80;0.20;;;27.30;1.00;;;;;;5056051;28;20426;-86
2022/05/15 10:48:05;;;;;;;1.00;0.40;;;27.00;1.00;;;;;;5053546;28;20904;-84
2022/05/15 10:51:02;;;;;;;3.23;0.40;;;26.70;1.00;;;;;;5054561;28;20482;-91
2022/05/15 10:59:54;;;;;;;1.10;0.20;;;27.40;1.00;;;;;;5054247;28;20973;-81
2022/05/15 11:02:51;;;;;;;1.97;0.63;;;26.50;1.00;;;;;;5054309;28;20950;-82
2022/05/15 11:05:20;;;;;;;1.90;0.50;;;26.70;1.00;;;;;;5053043;28;20470;-91
2022/05/15 11:08:17;;;;;;;1.23;0.40;;;27.20;1.00;;;;;;5053047;28;20408;-91
2022/05/15 11:11:24;;;;;;;0.83;0.30;;;27.30;1.00;;;;;;5035075;28;20416;-83
2022/05/15 11:14:01;;;;;;;2.33;0.53;;;27.10;1.00;;;;;;5052514;28;20440;-82
2022/05/15 11:16:52;;;;;;;1.83;0.40;;;26.80;1.00;;;;;;5053701;28;20468;-84
2022/05/15 11:19:45;;;;;;;1.77;0.47;;;26.50;1.00;;;;;;5053551;28;20444;-87
2022/05/15 11:22:34;;;;;;;1.30;0.47;;;26.30;1.00;;;;;;5053684;28;20425;-84
2022/05/15 11:25:16;;;;;;;1.60;0.30;;;26.70;1.00;;;;;;5052539;28;20534;-83
2022/05/15 11:27:55;;;;;;;0.80;0.40;;;27.30;1.00;;;;;;5051914;28;20455;-83
2022/05/15 11:30:47;;;;;;;1.30;0.30;;;27.30;1.00;;;;;;5052587;28;20415;-82
2022/05/15 11:33:43;;;;;;;2.10;0.53;;;27.50;1.00;;;;;;5053166;28;20419;-87
2022/05/15 11:36:30;;;;;;;1.70;0.30;;;27.80;1.00;;;;;;5053284;28;20520;-83
2022/05/15 11:38:55;;;;;;;1.53;0.40;;;26.20;1.00;;;;;;5061837;28;20450;-83
2022/05/15 11:41:31;;;;;;;0.70;0.20;;;26.40;1.00;;;;;;5051739;28;20538;-83
2022/05/15 11:44:05;;;;;;;2.27;0.43;;;27.00;1.00;;;;;;5051715;28;20168;-83
2022/05/15 11:46:46;;;;;;;2.27;0.43;;;26.80;1.00;;;;;;5069413;28;20416;-85
2022/05/15 11:49:39;;;;;;;1.37;0.43;;;27.00;1.00;;;;;;5065051;28;20415;-89
2022/05/15 11:52:08;;;;;;;2.20;0.30;;;26.90;1.00;;;;;;5063138;28;20458;-87
2022/05/15 11:54:40;;;;;;;1.97;0.60;;;26.40;1.00;;;;;;5064247;28;20442;-86
2022/05/15 11:57:11;;;;;;;1.17;0.50;;;26.30;1.00;;;;;;5076332;28;20546;-85
2022/05/15 11:59:55;;;;;;;1.60;0.40;;;27.10;1.00;;;;;;5075403;28;20794;-89
2022/05/15 12:02:20;;;;;;;1.10;0.57;;;26.70;1.00;;;;;;5068600;28;20415;-90
2022/05/15 12:04:46;;;;;;;2.00;0.60;;;26.30;1.00;;;;;;5063082;28;20429;-92
2022/05/15 12:07:17;;;;;;;1.20;0.50;;;26.80;1.00;;;;;;5044607;28;20233;-90
2022/05/15 12:09:44;;;;;;;0.90;0.37;;;26.60;1.00;;;;;;5043486;28;20210;-92
2022/05/15 12:15:18;;;;;;;2.73;0.40;;;26.90;1.00;;;;;;5060675;28;20436;-89
2022/05/15 12:17:49;;;;;;;1.13;0.33;;;27.10;1.00;;;;;;5046910;28;20411;-87
2022/05/15 12:20:33;;;;;;;0.93;0.40;;;27.30;1.00;;;;;;5072274;28;20475;-90
2022/05/15 12:23:03;;;;;;;0.80;0.30;;;27.20;1.00;;;;;;5056949;28;20478;-84
2022/05/15 12:25:56;;;;;;;0.70;0.30;;;27.00;1.00;;;;;;5048440;28;20468;-89
2022/05/15 12:28:54;;;;;;;1.37;0.50;;;27.00;1.00;;;;;;5045281;28;20424;-88
2022/05/15 12:31:33;;;;;;;2.83;0.50;;;26.60;1.00;;;;;;5052450;28;20428;-87
2022/05/15 12:34:32;;;;;;;1.13;0.40;;;26.70;1.00;;;;;;5054358;28;20412;-88
2022/05/15 12:37:06;;;;;;;0.80;0.40;;;26.80;1.00;;;;;;5054524;28;20447;-87
2022/05/15 12:39:41;;;;;;;1.60;0.90;;;27.00;1.00;;;;;;5035942;28;20424;-91
2022/05/15 12:42:14;;;;;;;1.03;0.30;;;27.00;1.00;;;;;;5055413;28;20427;-87
2022/05/15 12:44:40;;;;;;;0.90;0.30;;;27.40;1.00;;;;;;5037570;28;20423;-90
2022/05/15 12:47:12;;;;;;;1.67;0.50;;;27.60;1.00;;;;;;5037623;28;20468;-87
2022/05/15 12:49:43;;;;;;;1.33;0.50;;;27.00;1.00;;;;;;5056519;28;20166;-88
2022/05/15 12:52:28;;;;;;;0.67;0.40;;;26.80;1.00;;;;;;5055522;28;20502;-91
2022/05/15 12:54:58;;;;;;;1.60;0.73;;;27.20;1.00;;;;;;5038857;28;20900;-87
2022/05/15 12:57:23;;;;;;;2.00;0.53;;;27.10;1.00;;;;;;5037397;28;20459;-86
2022/05/15 12:59:50;;;;;;;1.10;0.40;;;26.70;1.00;;;;;;5054836;28;20440;-85
2022/05/15 13:02:27;;;;;;;2.47;0.70;;;26.60;1.00;;;;;;5037538;28;20607;-87
2022/05/15 13:04:55;;;;;;;1.73;0.50;;;26.90;1.00;;;;;;5036988;28;20423;-90
2022/05/15 13:07:26;;;;;;;1.00;0.53;;;27.10;1.00;;;;;;5036777;28;20794;-88
2022/05/15 13:10:05;;;;;;;0.97;0.30;;;26.60;1.00;;;;;;5037016;28;20556;-91
2022/05/15 13:12:31;;;;;;;1.67;0.40;;;26.30;1.00;;;;;;5054802;28;20766;-80
2022/05/15 13:14:58;;;;;;;2.60;0.30;;;26.20;1.00;;;;;;5054146;28;20404;-79
2022/05/15 13:17:36;;;;;;;1.00;0.33;;;25.90;1.00;;;;;;5054421;28;20174;-79
2022/05/15 13:20:14;;;;;;;1.50;0.50;;;25.80;1.00;;;;;;5054600;28;20408;-78
2022/05/15 13:22:40;;;;;;;2.40;0.30;;;26.10;1.00;;;;;;5054536;28;20931;-80
2022/05/15 13:25:10;;;;;;;2.20;0.40;;;26.30;1.00;;;;;;5054527;28;20977;-78
2022/05/15 13:27:41;;;;;;;1.77;0.30;;;26.20;1.00;;;;;;5054433;28;20848;-92
2022/05/15 13:30:26;;;;;;;2.10;0.77;;;25.90;1.00;;;;;;5054716;28;20423;-79
2022/05/15 13:33:01;;;;;;;2.40;0.60;;;25.40;1.00;;;;;;5055238;28;20423;-79
2022/05/15 13:35:32;;;;;;;1.60;0.90;;;25.90;1.00;;;;;;5055286;28;20465;-82
2022/05/15 13:38:32;;;;;;;1.63;0.50;;;25.10;1.00;;;;;;5027661;28;20787;-94
2022/05/15 13:44:01;;;;;;;0.90;0.40;;;24.80;1.00;;;;;;5042784;28;20440;-87